Latest Weather Observations for Whyalla

IDS60801

Issued at 4:35 pm CDT Friday 31 October 2014 (issued every 30 minutes, with the page automatically refreshed every 10 minutes)

About weather observations | Map of weather stations | Latest weather observations for SA | Other Formats
Station Details ID: 018120 Name: WHYALLA AERO Lat: -33.05 Lon: 137.52 Height: 6.5 m
Data from the previous 72 hours. | See also: Recent months at Whyalla
Date/Time
CDT
Temp
°C
App
Temp
°C
Dew
Point
Rel
Hum
%
Delta-T
°C
Wind Press
QNH
hPa
Press
MSL
hPa
Rain
since 9 am
mm
Dir
 
Spd
km/h
Gust
km/h
Spd
kts
Gust
kts
31/04:30pm 26.1 17.5 9.0 34 9.4 S 44 61 24 33 999.4 999.3 0.0
31/04:12pm 27.9 20.0 7.7 28 10.9 S 39 65 21 35 998.7 998.6 0.0
31/04:03pm 31.4 22.7 4.2 18 14.2 SSW 39 54 21 29 999.3 999.2 0.0
31/04:00pm 36.1 30.3 4.4 14 17.0 W 24 33 13 18 998.9 998.8 0.0
31/03:30pm 36.1 28.8 5.4 15 16.7 NW 33 44 18 24 998.8 998.7 0.0
31/03:20pm 36.9 29.9 6.0 15 17.0 NW 32 50 17 27 998.9 998.8 0.0
31/03:00pm 37.4 30.3 6.4 15 17.2 NW 33 48 18 26 999.2 999.1 0.0
31/02:52pm 38.0 29.9 6.9 15 17.4 NW 39 48 21 26 999.3 999.2 0.0
31/02:49pm 37.6 29.8 6.6 15 17.2 W 37 48 20 26 999.2 999.1 0.0
31/02:30pm 37.7 31.2 6.6 15 17.4 NW 30 48 16 26 999.8 999.7 0.0
31/02:23pm 37.4 30.5 6.4 15 17.2 NW 32 50 17 27 1000.0 999.9 0.0
31/02:00pm 36.2 29.3 6.4 16 16.4 NW 32 41 17 22 1000.5 1000.4 0.0
31/01:30pm 36.8 29.2 5.9 15 17.0 NW 35 54 19 29 1000.9 1000.8 0.0
31/01:00pm 37.5 30.0 6.5 15 17.2 NW 35 54 19 29 1001.4 1001.3 0.0
31/12:32pm 35.5 28.3 5.8 16 16.1 NW 33 54 18 29 1002.1 1002.0 0.0
31/12:30pm 36.8 30.0 6.9 16 16.7 NW 32 44 17 24 1002.1 1002.0 0.0
31/12:00pm 35.3 26.9 7.4 18 15.6 NNW 41 56 22 30 1002.6 1002.5 0.0
31/11:30am 34.7 27.5 7.7 19 15.1 NNW 35 48 19 26 1002.9 1002.8 0.0
31/11:19am 35.5 27.3 6.7 17 15.9 NW 39 43 21 23 1003.0 1002.9 0.0
31/11:15am 35.2 28.1 5.6 16 16.1 NNW 32 50 17 27 1003.1 1003.0 0.0
31/11:00am 34.8 28.6 6.2 17 15.6 NNW 28 35 15 19 1003.2 1003.1 0.0
31/10:30am 31.4 25.6 4.2 18 14.1 N 24 33 13 18 1003.6 1003.5 0.0
31/10:00am 29.6 23.8 4.3 20 13.0 N 24 32 13 17 1003.8 1003.7 0.0
31/09:30am 30.7 23.1 2.9 17 14.1 N 32 43 17 23 1004.0 1003.9 0.0
31/09:00am 29.5 23.2 3.5 19 13.2 N 26 43 14 23 1004.5 1004.4 0.0
31/08:30am 24.9 21.7 8.4 35 8.9 NNW 15 19 8 10 1004.6 1004.5 0.0
31/08:00am 21.3 19.2 11.1 52 5.6 NNW 13 13 7 7 1004.7 1004.6 0.0
31/07:30am 18.7 17.1 8.9 53 5.1 NW 7 7 4 4 1004.8 1004.7 0.0
31/07:00am 15.2 12.7 6.7 57 4.1 N 9 13 5 7 1004.7 1004.6 0.0
31/06:30am 14.5 12.3 6.1 57 4.0 NNW 7 9 4 5 1004.9 1004.8 0.0
31/06:00am 15.2 12.7 6.5 56 4.2 NW 9 11 5 6 1005.0 1004.9 0.0
31/05:30am 15.4 13.9 6.7 56 4.3 N 4 7 2 4 1005.6 1005.5 0.0
31/05:00am 15.2 13.0 6.2 55 4.3 NNW 7 9 4 5 1005.8 1005.7 0.0
31/04:30am 15.1 13.1 6.1 55 4.3 NW 6 7 3 4 1005.8 1005.7 0.0
31/04:00am 15.3 13.2 6.8 57 4.2 NW 7 9 4 5 1006.3 1006.2 0.0
31/03:30am 15.2 13.3 7.5 60 3.8 NNW 7 9 4 5 1006.5 1006.4 0.0
31/03:00am 14.7 12.6 6.8 59 3.9 NW 7 9 4 5 1007.0 1006.9 0.0
31/02:30am 14.2 12.1 6.8 61 3.6 NW 7 9 4 5 1007.5 1007.4 0.0
31/02:00am 14.6 12.6 7.2 61 3.6 NW 7 9 4 5 1008.0 1007.9 0.0
31/01:30am 14.7 12.4 7.5 62 3.6 NNW 9 11 5 6 1008.3 1008.3 0.0
31/01:00am 15.9 14.3 7.9 59 4.0 SW 6 7 3 4 1008.8 1008.8 0.0
31/12:30am 16.4 14.3 8.4 59 4.1 SW 9 11 5 6 1009.4 1009.4 0.0
31/12:00am 17.5 17.3 9.2 58 4.3 WNW 0 2 0 1 1009.7 1009.7 0.0
 
Date/Time
CDT
Temp
°C
App
Temp
°C
Dew
Point
Rel
Hum
%
Delta-T
°C
Wind Press
QNH
hPa
Press
MSL
hPa
Rain
since 9 am
mm
Dir
 
Spd
km/h
Gust
km/h
Spd
kts
Gust
kts
30/11:30pm 17.0 15.6 9.4 61 4.0 WNW 7 11 4 6 1010.4 1010.4 0.0
30/11:00pm 18.1 17.2 11.2 64 3.7 SW 7 9 4 5 1010.3 1010.3 0.0
30/10:30pm 18.3 17.2 12.1 67 3.4 SSW 9 11 5 6 1010.5 1010.5 0.0
30/10:00pm 18.7 17.9 12.9 69 3.3 SSW 9 11 5 6 1010.6 1010.6 0.0
30/09:30pm 19.4 18.4 13.3 68 3.5 SSW 11 15 6 8 1010.9 1010.9 0.0
30/09:00pm 19.4 17.1 13.1 67 3.6 SSW 17 22 9 12 1010.8 1010.8 0.0
30/08:30pm 19.3 16.9 12.6 65 3.8 SSW 17 20 9 11 1010.5 1010.5 0.0
30/08:00pm 19.7 17.4 11.7 60 4.4 S 15 20 8 11 1010.6 1010.6 0.0
30/07:30pm 20.1 17.7 12.6 62 4.2 S 17 22 9 12 1010.4 1010.4 0.0
30/07:00pm 20.6 16.7 12.1 58 4.8 S 24 32 13 17 1010.5 1010.5 0.0
30/06:30pm 21.3 17.8 13.5 61 4.5 S 24 28 13 15 1010.6 1010.6 0.0
30/06:00pm 22.7 19.9 12.6 53 5.8 S 19 24 10 13 1010.5 1010.5 0.0
30/05:30pm 24.6 21.4 8.5 36 8.6 SSE 15 20 8 11 1010.4 1010.4 0.0
30/05:00pm 23.9 20.6 10.9 44 7.2 SE 19 26 10 14 1010.4 1010.4 0.0
30/04:30pm 24.6 21.4 10.1 40 8.0 SE 17 24 9 13 1010.7 1010.7 0.0
30/04:00pm 27.1 23.3 7.5 29 10.5 SE 17 20 9 11 1010.7 1010.7 0.0
30/03:30pm 26.3 22.3 8.3 32 9.7 E 19 22 10 12 1011.3 1011.3 0.0
30/03:00pm 25.5 21.6 8.5 34 9.2 E 19 24 10 13 1011.9 1011.9 0.0
30/02:30pm 25.1 22.5 10.6 40 8.1 E 15 19 8 10 1012.6 1012.6 0.0
30/02:00pm 24.0 22.2 12.0 47 6.8 E 13 17 7 9 1013.1 1013.1 0.0
30/01:30pm 23.6 21.9 12.3 49 6.4 E 13 19 7 10 1013.5 1013.5 0.0
30/01:00pm 22.5 21.1 12.2 52 5.8 SSE 11 17 6 9 1013.9 1013.9 0.0
30/12:30pm 21.8 20.5 12.6 56 5.2 SSE 11 19 6 10 1014.4 1014.4 0.0
30/12:00pm 20.4 18.6 13.4 64 4.0 SSE 15 24 8 13 1014.9 1014.9 0.0
30/11:30am 20.6 18.6 14.0 66 3.8 SSE 17 22 9 12 1015.4 1015.4 0.0
30/11:00am 19.4 17.0 13.8 70 3.2 S 19 26 10 14 1015.7 1015.7 0.0
30/10:30am 19.9 18.5 13.4 66 3.7 SSE 13 19 7 10 1015.9 1015.9 0.0
30/10:00am 19.1 17.4 13.5 70 3.2 S 15 20 8 11 1016.0 1016.0 0.0
30/09:30am 18.7 17.2 13.1 70 3.2 S 13 17 7 9 1015.9 1015.9 0.0
30/09:00am 18.2 16.3 12.9 71 3.0 S 15 20 8 11 1016.0 1016.0 0.0
30/08:30am 17.6 16.2 13.5 77 2.3 S 13 19 7 10 1015.8 1015.8 0.0
30/08:00am 16.8 14.6 13.3 80 2.0 SSW 17 20 9 11 1015.7 1015.7 0.0
30/07:30am 15.5 13.9 12.8 84 1.5 SW 13 17 7 9 1015.8 1015.8 0.0
30/07:00am 12.9 11.7 11.5 91 0.7 WSW 9 13 5 7 1015.5 1015.5 0.0
30/06:30am 11.7 10.1 10.3 91 0.7 SW 9 11 5 6 1015.1 1015.1 0.0
30/06:00am 11.9 9.9 10.3 90 0.8 SW 11 13 6 7 1014.9 1014.9 0.0
30/05:30am 12.0 10.5 10.4 90 0.8 WSW 9 11 5 6 1014.6 1014.6 0.0
30/05:00am 12.6 11.1 10.7 88 1.0 SW 9 9 5 5 1014.8 1014.8 0.0
30/04:30am 13.2 11.5 11.1 87 1.1 WSW 11 13 6 7 1014.8 1014.8 0.0
30/04:00am 13.7 12.1 11.4 86 1.2 WSW 11 13 6 7 1014.9 1014.9 0.0
30/03:30am 15.8 14.7 13.1 84 1.5 S 11 15 6 8 1015.0 1015.0 0.0
30/03:00am 16.1 14.7 13.4 84 1.5 S 13 19 7 10 1015.2 1015.2 0.0
30/02:30am 14.3 13.8 12.0 86 1.2 SW 6 9 3 5 1015.6 1015.6 0.0
30/02:00am 14.7 13.6 12.0 84 1.5 SW 9 13 5 7 1015.7 1015.7 0.0
30/01:30am 15.2 13.1 12.5 84 1.5 SW 15 19 8 10 1016.1 1016.1 0.0
30/01:00am 14.8 13.3 11.9 83 1.6 SW 11 15 6 8 1016.6 1016.6 0.0
30/12:30am 15.1 13.7 12.1 82 1.6 SW 11 15 6 8 1017.0 1017.0 0.0
30/12:00am 16.1 14.6 13.2 83 1.6 SSW 13 17 7 9 1017.0 1017.0 0.0
 
Date/Time
CDT
Temp
°C
App
Temp
°C
Dew
Point
Rel
Hum
%
Delta-T
°C
Wind Press
QNH
hPa
Press
MSL
hPa
Rain
since 9 am
mm
Dir
 
Spd
km/h
Gust
km/h
Spd
kts
Gust
kts
29/11:30pm 16.3 15.0 12.5 78 2.1 SSW 11 17 6 9 1017.2 1017.2 0.0
29/11:00pm 16.8 14.2 12.1 74 2.6 SSW 17 24 9 13 1017.4 1017.4 0.0
29/10:30pm 17.2 14.2 11.9 71 2.9 SSW 19 24 10 13 1017.2 1017.2 0.0
29/10:00pm 17.5 13.6 12.0 70 3.0 SSW 24 32 13 17 1017.0 1017.0 0.0
29/09:30pm 18.1 14.2 13.2 73 2.8 SSW 26 35 14 19 1016.5 1016.5 0.0
29/09:00pm 18.3 13.2 13.0 71 3.0 SSW 32 46 17 25 1016.0 1016.0 0.0
29/08:30pm 18.7 13.2 13.6 72 2.9 S 35 46 19 25 1015.8 1015.8 0.0
29/08:00pm 18.8 12.8 13.4 71 3.1 S 37 48 20 26 1015.6 1015.6 0.0
29/07:30pm 19.2 13.4 13.8 71 3.1 S 37 48 20 26 1015.2 1015.2 0.0
29/07:00pm 19.8 15.1 14.2 70 3.2 S 32 43 17 23 1014.9 1014.9 0.0
29/06:30pm 20.2 16.2 14.1 68 3.5 S 28 41 15 22 1014.6 1014.6 0.0
29/06:00pm 21.2 18.2 13.6 62 4.4 S 22 30 12 16 1014.3 1014.3 0.0
29/05:30pm 21.8 18.4 13.7 60 4.7 S 24 30 13 16 1014.3 1014.3 0.0
29/05:00pm 21.4 18.0 13.8 62 4.4 S 24 35 13 19 1014.1 1014.1 0.0
29/04:30pm 24.7 22.0 13.6 50 6.5 S 20 26 11 14 1014.0 1014.0 0.0
29/04:00pm 27.0 22.2 8.9 32 9.9 E 24 30 13 16 1013.9 1013.9 0.0
29/03:30pm 26.2 22.6 10.4 37 8.8 E 20 26 11 14 1014.3 1014.3 0.0
29/03:00pm 25.5 21.6 10.9 40 8.2 E 22 30 12 16 1014.8 1014.8 0.0
29/02:30pm 24.4 21.2 12.0 46 7.0 E 20 26 11 14 1015.3 1015.3 0.0
29/02:00pm 24.9 22.0 12.2 45 7.3 E 19 24 10 13 1015.7 1015.7 0.0
29/01:30pm 24.6 22.1 12.2 46 7.1 E 17 20 9 11 1016.4 1016.4 0.0
29/01:00pm 23.9 22.2 12.5 49 6.5 ESE 13 20 7 11 1016.8 1016.8 0.0
29/12:30pm 22.3 19.8 12.3 53 5.7 SSE 17 22 9 12 1017.3 1017.3 0.0
29/12:00pm 21.5 19.5 11.5 53 5.5 SE 13 19 7 10 1018.0 1018.0 0.0
29/11:30am 21.0 20.2 11.6 55 5.2 SE 7 15 4 8 1018.3 1018.3 0.0
29/11:00am 21.0 20.0 12.2 57 4.9 SE 9 15 5 8 1018.8 1018.8 0.0
29/10:30am 19.4 18.1 11.2 59 4.5 SE 9 17 5 9 1019.0 1019.0 0.0
29/10:00am 18.6 16.7 11.9 65 3.7 SE 13 19 7 10 1019.4 1019.4 0.0
29/09:30am 18.4 16.3 11.2 63 3.9 SSE 13 19 7 10 1019.5 1019.5 0.0
29/09:00am 18.0 16.2 12.0 68 3.3 SE 13 19 7 10 1019.6 1019.6 0.0
29/08:30am 17.1 14.8 11.8 71 2.9 SSE 15 22 8 12 1019.8 1019.8 0.0
29/08:00am 16.7 14.2 12.3 75 2.4 SE 17 22 9 12 1019.9 1019.9 0.0
29/07:43am 16.7 14.6 12.5 76 2.3 SE 15 20 8 11 1019.9 1019.9 0.0
29/07:30am 16.3 14.2 12.5 78 2.1 SE 15 20 8 11 1019.8 1019.8 0.0
29/07:05am 16.1 14.5 12.7 80 1.9 SE 13 19 7 10 1019.7 1019.7 0.0
29/07:00am 16.0 14.3 12.6 80 1.9 SE 13 19 7 10 1019.6 1019.6 0.0
29/06:30am 15.2 13.4 12.0 81 1.7 SSE 13 17 7 9 1019.6 1019.6 0.0
29/06:00am 15.1 13.7 12.1 82 1.6 SE 11 15 6 8 1019.3 1019.3 0.0
29/05:30am 14.9 13.4 11.9 82 1.6 SSE 11 15 6 8 1019.0 1019.0 0.0
29/05:00am 14.1 13.0 11.8 86 1.2 S 9 15 5 8 1018.9 1018.9 0.0
29/04:30am 12.7 11.5 10.2 85 1.3 SW 7 9 4 5 1019.0 1019.0 0.0
29/04:00am 12.5 10.8 10.0 85 1.3 WSW 9 11 5 6 1019.1 1019.1 0.0
29/03:30am 12.6 11.0 10.3 86 1.2 WSW 9 13 5 7 1019.0 1019.0 0.0
29/03:00am 12.8 11.6 10.3 85 1.3 SW 7 9 4 5 1019.2 1019.2 0.0
29/02:30am 13.4 11.5 10.6 83 1.5 SSW 11 13 6 7 1019.2 1019.2 0.0
29/02:00am 13.9 11.7 10.7 81 1.7 SSW 13 15 7 8 1019.4 1019.4 0.0
29/01:30am 13.7 11.4 10.5 81 1.7 SW 13 15 7 8 1019.6 1019.6 0.0
29/01:00am 14.3 11.8 10.9 80 1.8 SW 15 19 8 10 1019.8 1019.8 0.0
29/12:30am 14.5 12.3 10.7 78 2.0 SSW 13 19 7 10 1020.0 1020.0 0.0
29/12:00am 14.4 12.4 10.2 76 2.2 SW 11 13 6 7 1020.0 1020.0 0.0
 
Date/Time
CDT
Temp
°C
App
Temp
°C
Dew
Point
Rel
Hum
%
Delta-T
°C
Wind Press
QNH
hPa
Press
MSL
hPa
Rain
since 9 am
mm
Dir
 
Spd
km/h
Gust
km/h
Spd
kts
Gust
kts
28/11:30pm 15.3 12.3 10.7 74 2.4 SW 17 20 9 11 1019.9 1019.9 0.0
28/11:00pm 15.3 13.0 10.3 72 2.6 SW 13 17 7 9 1020.0 1020.0 0.0
28/10:30pm 16.3 12.9 10.6 69 3.0 SSW 19 24 10 13 1019.9 1019.9 0.0
28/10:00pm 16.4 13.4 10.5 68 3.1 SSW 17 24 9 13 1019.7 1019.7 0.0
28/09:30pm 16.5 13.3 10.1 66 3.4 S 17 20 9 11 1019.7 1019.7 0.0
28/09:00pm 16.7 13.6 10.3 66 3.4 S 17 20 9 11 1019.6 1019.6 0.0
28/08:30pm 16.8 13.4 10.4 66 3.4 S 19 24 10 13 1019.3 1019.3 0.0
28/08:00pm 17.0 13.7 10.8 67 3.3 S 19 26 10 14 1019.2 1019.2 0.0
28/07:30pm 17.5 14.6 10.9 65 3.5 SSE 17 24 9 13 1019.3 1019.3 0.0
28/07:00pm 18.1 14.5 10.5 61 4.1 S 20 28 11 15 1018.9 1018.9 0.0
28/06:30pm 18.6 14.9 10.2 58 4.5 SSE 20 30 11 16 1018.8 1018.8 0.0
28/06:00pm 19.4 15.9 10.1 55 5.0 SSE 19 28 10 15 1018.7 1018.7 0.0
28/05:30pm 19.0 14.7 10.6 58 4.5 SSE 24 30 13 16 1018.6 1018.6 0.0
28/05:00pm 19.4 15.8 10.7 57 4.7 SSE 20 28 11 15 1018.7 1018.7 0.0

Other Formats:

Comma delimited format used in spreadsheet applications
http://www.bom.gov.au/fwo/IDS60801/IDS60801.95664.axf

JavaScript Object Notation format (JSON) in row-major order
http://www.bom.gov.au/fwo/IDS60801/IDS60801.95664.json